Time;durP1;ratioP1;P1;durP2;ratioP2;P2;SDS_P1;SDS_P2;PMS_P1;PMS_P2;Temp;Humidity;BMP_temperature;BMP_pressure;BME280_temperature;BME280_humidity;BME280_pressure;Samples;Min_cycle;Max_cycle;Signal;HPM_P1;HPM_P2
2022/10/07 00:02:11;;;;;;;7.72;5.55;;;;;;;14.75;72.87;97827.88;4915129;29;20111;-89
2022/10/07 00:04:49;;;;;;;6.78;4.10;;;;;;;14.74;73.75;97823.63;4915429;29;20135;-89
2022/10/07 00:07:33;;;;;;;6.82;5.20;;;;;;;14.73;72.91;97829.84;4915605;29;20116;-88
2022/10/07 00:10:14;;;;;;;7.63;4.97;;;;;;;14.77;75.76;97823.25;4916751;29;20540;-90
2022/10/07 00:12:47;;;;;;;4.78;2.70;;;;;;;14.81;72.56;97819.28;4919125;29;20072;-89
2022/10/07 00:15:22;;;;;;;3.05;2.30;;;;;;;14.82;71.73;97813.03;4918848;29;20056;-89
2022/10/07 00:17:51;;;;;;;5.47;2.80;;;;;;;14.79;71.44;97816.00;4916227;29;20123;-88
2022/10/07 00:20:26;;;;;;;7.10;3.42;;;;;;;14.77;71.31;97812.75;4916527;29;20523;-90
2022/10/07 00:22:58;;;;;;;5.85;3.50;;;;;;;14.72;71.63;97809.84;4916125;29;20056;-89
2022/10/07 00:25:28;;;;;;;5.95;3.10;;;;;;;14.69;71.64;97818.06;4916529;29;20052;-87
2022/10/07 00:28:08;;;;;;;6.82;3.65;;;;;;;14.68;71.99;97810.38;4915253;29;20116;-89
2022/10/07 00:30:39;;;;;;;;;;;;;;;14.71;71.89;97810.81;4916376;29;20056;-90
2022/10/07 00:33:13;;;;;;;6.25;3.40;;;;;;;14.71;71.84;97808.19;4916628;29;19923;-89
2022/10/07 00:35:55;;;;;;;5.40;3.70;;;;;;;14.72;72.99;97807.22;4915478;29;20065;-89
2022/10/07 00:38:38;;;;;;;4.30;3.47;;;;;;;14.77;73.83;97793.56;4914667;29;20056;-89
2022/10/07 00:41:26;;;;;;;10.00;4.72;;;;;;;14.82;74.18;97793.81;4912645;29;20060;-89
2022/10/07 00:44:21;;;;;;;5.28;4.10;;;;;;;14.82;73.83;97792.03;4914179;29;20064;-89
2022/10/07 00:46:51;;;;;;;7.35;4.13;;;;;;;14.78;72.09;97795.16;4913410;29;20066;-86
2022/10/07 00:49:23;;;;;;;8.27;3.72;;;;;;;14.74;72.30;97789.47;4912736;29;20068;-91
2022/10/07 00:51:57;;;;;;;5.32;4.00;;;;;;;14.79;74.17;97776.59;4912480;29;20080;-90
2022/10/07 00:54:27;;;;;;;5.75;3.60;;;;;;;14.87;75.56;97788.03;4912116;29;20057;-89
2022/10/07 00:57:06;;;;;;;6.57;4.07;;;;;;;14.89;74.73;97780.78;4912188;29;20515;-87
2022/10/07 00:59:40;;;;;;;7.70;4.32;;;;;;;14.88;73.89;97784.41;4913480;29;20283;-88
2022/10/07 01:02:14;;;;;;;5.18;4.10;;;;;;;14.88;75.27;97779.16;4914367;29;20088;-90
2022/10/07 01:04:53;;;;;;;5.72;3.88;;;;;;;14.89;75.18;97778.16;4912515;29;20073;-89
2022/10/07 01:07:23;;;;;;;8.13;3.75;;;;;;;14.89;73.20;97772.91;4913100;29;20068;-88
2022/10/07 01:09:56;;;;;;;7.22;3.40;;;;;;;14.83;71.67;97770.00;4911346;29;20056;-89
2022/10/07 01:12:46;;;;;;;3.72;3.10;;;;;;;14.84;72.78;97765.56;4911951;29;20060;-87
2022/10/07 01:15:25;;;;;;;5.55;2.83;;;;;;;14.83;71.95;97763.94;4912513;29;20056;-88
2022/10/07 01:18:15;;;;;;;8.80;3.00;;;;;;;14.81;71.05;97758.06;4911431;29;20064;-84
2022/10/07 01:20:57;;;;;;;8.13;3.10;;;;;;;14.79;70.44;97749.53;4911443;29;20060;-88
2022/10/07 01:23:57;;;;;;;8.02;3.15;;;;;;;14.84;72.52;97747.97;4910337;29;20076;-82
2022/10/07 01:26:46;;;;;;;4.38;3.03;;;;;;;14.89;73.00;97751.88;4911598;29;20098;-90
2022/10/07 01:29:25;;;;;;;4.28;3.38;;;;;;;14.93;73.36;97750.53;4910629;29;20063;-90
2022/10/07 01:32:11;;;;;;;5.18;3.75;;;;;;;14.95;73.71;97732.78;4911524;29;20056;-87
2022/10/07 01:34:44;;;;;;;6.75;3.53;;;;;;;14.92;72.36;97733.16;4910444;29;20068;-87
2022/10/07 01:37:31;;;;;;;5.97;3.60;;;;;;;14.86;71.43;97731.25;4911089;29;20067;-87
2022/10/07 01:40:18;;;;;;;4.15;3.22;;;;;;;14.83;72.07;97735.06;4910341;29;20083;-85
2022/10/07 01:43:02;;;;;;;5.38;3.08;;;;;;;14.87;74.80;97732.84;4910812;29;20567;-84
2022/10/07 01:45:41;;;;;;;5.40;3.15;;;;;;;14.89;75.15;97728.25;4910713;29;20537;-87
2022/10/07 01:48:15;;;;;;;5.10;2.53;;;;;;;14.87;71.38;97724.97;4910371;29;20445;-86
2022/10/07 01:50:48;;;;;;;5.57;2.65;;;;;;;14.87;70.36;97727.59;4910375;29;20080;-83
2022/10/07 01:53:49;;;;;;;3.03;2.35;;;;;;;14.89;69.16;97725.63;4909939;29;20055;-86
2022/10/07 01:56:43;;;;;;;2.60;2.03;;;;;;;14.94;69.48;97723.28;4908806;29;20486;-88
2022/10/07 01:59:50;;;;;;;7.00;2.70;;;;;;;14.96;69.22;97718.66;4910000;29;20084;-86
2022/10/07 02:02:41;;;;;;;7.45;3.00;;;;;;;14.96;69.31;97719.47;4912957;29;20116;-85
2022/10/07 02:05:27;;;;;;;6.13;3.67;;;;;;;14.96;70.04;97719.47;4914125;29;20083;-89
2022/10/07 02:08:20;;;;;;;8.02;3.35;;;;;;;14.96;70.37;97719.47;4912051;29;20139;-91
2022/10/07 02:11:02;;;;;;;8.27;3.33;;;;;;;14.97;71.28;97720.28;4912793;29;20085;-86
2022/10/07 02:13:46;;;;;;;5.80;3.33;;;;;;;15.00;71.65;97714.66;4912345;29;20048;-85
2022/10/07 02:16:28;;;;;;;3.45;2.88;;;;;;;15.02;71.72;97710.03;4912940;29;20116;-85
2022/10/07 02:19:02;;;;;;;8.15;4.38;;;;;;;14.99;70.42;97707.78;4916770;29;20552;-91
2022/10/07 02:21:45;;;;;;;6.28;3.47;;;;;;;14.97;71.00;97715.03;4916915;29;20056;-89
2022/10/07 02:24:22;;;;;;;7.50;3.60;;;;;;;14.93;70.33;97711.13;4920760;29;20060;-89
2022/10/07 02:27:10;;;;;;;6.10;3.72;;;;;;;14.83;69.93;97706.97;4921068;29;20052;-90
2022/10/07 02:32:46;;;;;;;5.68;4.18;;;;;;;14.77;70.72;97699.81;4916931;29;20059;-90
2022/10/07 02:35:33;;;;;;;7.75;4.47;;;;;;;14.72;70.51;97691.66;4917275;29;20049;-90
2022/10/07 02:38:11;;;;;;;7.20;4.45;;;;;;;14.75;72.61;97691.28;4915905;29;20053;-90
2022/10/07 02:40:59;;;;;;;4.38;3.53;;;;;;;14.79;73.22;97686.50;4917964;29;20063;-89
2022/10/07 02:43:38;;;;;;;7.68;3.30;;;;;;;14.76;71.53;97692.13;4918069;29;20056;-89
2022/10/07 02:46:13;;;;;;;3.75;2.80;;;;;;;14.78;73.18;97683.06;4917675;29;20108;-91
2022/10/07 02:48:58;;;;;;;5.18;3.30;;;;;;;14.84;71.78;97686.75;4917045;29;20060;-89
2022/10/07 02:51:39;;;;;;;7.20;3.30;;;;;;;14.85;71.75;97675.28;4916422;29;20064;-89
2022/10/07 02:54:11;;;;;;;5.35;3.38;;;;;;;14.87;72.44;97675.06;4917470;29;20053;-89
2022/10/07 02:56:42;;;;;;;3.47;3.00;;;;;;;14.89;71.95;97673.06;4918981;29;20056;-92
2022/10/07 02:59:15;;;;;;;10.60;2.35;;;;;;;14.89;69.87;97670.44;4916317;29;20056;-87
2022/10/07 03:01:57;;;;;;;4.53;2.88;;;;;;;14.93;70.63;97682.22;4916901;29;20442;-88
2022/10/07 03:04:34;;;;;;;3.00;2.33;;;;;;;14.95;70.45;97675.78;4917049;29;20116;-88
2022/10/07 03:07:10;;;;;;;2.25;2.05;;;;;;;14.98;69.26;97680.69;4916870;29;20064;-89
2022/10/07 03:09:45;;;;;;;4.03;2.05;;;;;;;14.97;68.51;97667.72;4915503;29;20147;-86
2022/10/07 03:12:17;;;;;;;3.95;2.30;;;;;;;15.00;68.14;97677.88;4915487;29;20052;-86
2022/10/07 03:14:45;;;;;;;7.13;2.28;;;;;;;15.00;67.43;97672.63;4915112;29;20494;-89
2022/10/07 03:17:21;;;;;;;;;;;;;;;15.00;66.99;97667.38;4915340;29;20116;-91
2022/10/07 03:22:45;;;;;;;4.68;2.38;;;;;;;15.00;67.54;97667.38;4914478;29;20112;-87
2022/10/07 03:25:17;;;;;;;4.63;2.20;;;;;;;15.01;67.29;97663.75;4915799;29;20059;-88
2022/10/07 03:27:53;;;;;;;6.65;1.98;;;;;;;15.00;67.33;97662.13;4914102;29;20060;-86
2022/10/07 11:01:23;;;;;;;8.57;1.40;;;;;;;43.72;15.27;97392.09;4940306;29;20048;-90
2022/10/07 11:04:17;;;;;;;3.13;1.38;;;;;;;43.54;15.53;97377.44;4938640;29;20052;-90
2022/10/07 11:06:50;;;;;;;6.28;1.50;;;;;;;42.05;16.20;97383.56;4933902;29;20143;-91
2022/10/07 11:09:29;;;;;;;3.33;1.50;;;;;;;42.09;15.85;97382.44;4944026;29;20096;-93
2022/10/07 11:12:03;;;;;;;1.98;1.35;;;;;;;40.86;17.20;97375.28;4943934;29;20060;-91
2022/10/07 11:14:32;;;;;;;5.75;2.40;;;;;;;39.04;18.63;97364.50;4942471;29;20048;-90
2022/10/07 15:58:36;;;;;;;9.55;6.07;;;;;;;20.43;52.89;97084.91;5506687;23;20047;-79
2022/10/07 16:05:04;;;;;;;11.73;6.95;;;;;;;20.25;53.31;97080.56;4919651;29;20056;-77
